Time;durP1;ratioP1;P1;durP2;ratioP2;P2;SDS_P1;SDS_P2;PMS_P1;PMS_P2;Temp;Humidity;BMP_temperature;BMP_pressure;BME280_temperature;BME280_humidity;BME280_pressure;Samples;Min_cycle;Max_cycle;Signal;HPM_P1;HPM_P2
2023/09/01 00:01:39;;;;;;;8.45;2.80;;;;;;;;;;5029568;28;20044;-72
2023/09/01 00:04:26;;;;;;;8.02;2.88;;;;;;;;;;5030899;28;20041;-72
2023/09/01 00:06:51;;;;;;;8.73;2.58;;;;;;;;;;5037706;28;20433;-72
2023/09/01 00:09:16;;;;;;;3.25;2.92;;;;;;;;;;5036965;28;20102;-72
2023/09/01 00:11:42;;;;;;;2.92;2.30;;;;;;;;;;5023425;28;20512;-72
2023/09/01 00:14:07;;;;;;;2.63;2.10;;;;;;;;;;5038919;28;20053;-72
2023/09/01 00:16:32;;;;;;;3.25;2.28;;;;;;;;;;5036680;28;20080;-72
2023/09/01 00:18:58;;;;;;;4.85;2.20;;;;;;;;;;5025559;28;20053;-72
2023/09/01 00:21:23;;;;;;;3.42;2.40;;;;;;;;;;5027726;28;20049;-72
2023/09/01 00:23:49;;;;;;;3.53;2.15;;;;;;;;;;5036817;28;20584;-72
2023/09/01 00:26:14;;;;;;;3.40;2.00;;;;;;;;;;5037491;28;20068;-72
2023/09/01 00:28:42;;;;;;;2.83;2.40;;;;;;;;;;5023284;28;20372;-72
2023/09/01 00:31:07;;;;;;;3.10;2.00;;;;;;;;;;5030277;28;20613;-72
2023/09/01 00:33:33;;;;;;;4.90;2.35;;;;;;;;;;5036480;28;20061;-72
2023/09/01 00:35:59;;;;;;;4.43;2.60;;;;;;;;;;5033913;28;20045;-72
2023/09/01 00:38:25;;;;;;;2.60;1.92;;;;;;;;;;5039781;28;20566;-72
2023/09/01 00:40:50;;;;;;;3.33;1.98;;;;;;;;;;5024351;28;20128;-72
2023/09/01 00:43:16;;;;;;;2.45;2.13;;;;;;;;;;5036765;28;20045;-72
2023/09/01 00:45:42;;;;;;;4.00;2.22;;;;;;;;;;5024785;28;20045;-72
2023/09/01 00:48:10;;;;;;;3.22;2.05;;;;;;;;;;5024454;28;20052;-72
2023/09/01 00:50:36;;;;;;;2.85;2.30;;;;;;;;;;5036823;28;20130;-72
2023/09/01 00:53:04;;;;;;;5.53;2.15;;;;;;;;;;5037193;28;20049;-72
2023/09/01 00:55:32;;;;;;;2.72;2.13;;;;;;;;;;5020842;28;20143;-72
2023/09/01 00:57:57;;;;;;;2.22;2.00;;;;;;;;;;5036096;28;20063;-72
2023/09/01 01:00:23;;;;;;;3.75;2.17;;;;;;;;;;5035027;28;20049;-72
2023/09/01 01:02:49;;;;;;;3.72;2.05;;;;;;;;;;5036717;28;20490;-72
2023/09/01 01:05:15;;;;;;;2.95;2.15;;;;;;;;;;5020907;28;20502;-72
2023/09/01 01:08:08;;;;;;;3.65;2.33;;;;;;;;;;5036541;28;20080;-72
2023/09/01 01:10:58;;;;;;;2.95;2.17;;;;;;;;;;5019601;28;20479;-72
2023/09/01 01:13:30;;;;;;;4.40;2.13;;;;;;;;;;5040506;28;20076;-72
2023/09/01 01:15:57;;;;;;;2.47;2.10;;;;;;;;;;5025981;28;20095;-72
2023/09/01 01:18:26;;;;;;;3.10;2.47;;;;;;;;;;5020191;28;20045;-72
2023/09/01 01:20:55;;;;;;;2.85;2.50;;;;;;;;;;5023661;28;20050;-71
2023/09/01 01:23:22;;;;;;;4.93;2.55;;;;;;;;;;5019217;28;20049;-71
2023/09/01 01:25:49;;;;;;;2.92;2.00;;;;;;;;;;5027481;28;20052;-74
2023/09/01 01:28:15;;;;;;;4.70;2.47;;;;;;;;;;5020455;28;20049;-72
2023/09/01 01:30:41;;;;;;;3.03;2.35;;;;;;;;;;5034111;28;20041;-73
2023/09/01 01:33:16;;;;;;;2.40;2.20;;;;;;;;;;5035558;28;20056;-73
2023/09/01 01:36:08;;;;;;;6.05;3.00;;;;;;;;;;5019540;28;20045;-72
2023/09/01 01:38:38;;;;;;;4.38;3.00;;;;;;;;;;5036979;28;20053;-72
2023/09/01 01:41:14;;;;;;;4.57;2.65;;;;;;;;;;5040693;28;20135;-72
2023/09/01 01:43:42;;;;;;;4.75;3.33;;;;;;;;;;5035631;28;20037;-72
2023/09/01 01:46:08;;;;;;;4.13;2.78;;;;;;;;;;5034513;28;20036;-72
2023/09/01 01:48:39;;;;;;;3.28;2.92;;;;;;;;;;5024035;28;20536;-72
2023/09/01 01:51:07;;;;;;;5.43;3.17;;;;;;;;;;5040337;28;20072;-73
2023/09/01 01:53:37;;;;;;;3.85;2.78;;;;;;;;;;5035794;28;20099;-76
2023/09/01 01:56:03;;;;;;;3.67;2.70;;;;;;;;;;5040556;28;20053;-73
2023/09/01 01:58:30;;;;;;;3.30;2.85;;;;;;;;;;5023657;28;20046;-72
2023/09/01 02:00:55;;;;;;;5.22;2.97;;;;;;;;;;5027328;28;20489;-72
2023/09/01 02:03:21;;;;;;;3.60;2.95;;;;;;;;;;5023185;28;20083;-72
2023/09/01 02:05:47;;;;;;;3.20;2.90;;;;;;;;;;5033996;28;20049;-73
2023/09/01 02:08:13;;;;;;;4.70;3.42;;;;;;;;;;5023111;28;20104;-72
2023/09/01 02:10:38;;;;;;;5.78;3.38;;;;;;;;;;5036428;28;20045;-72
2023/09/01 02:13:04;;;;;;;7.68;3.80;;;;;;;;;;5029080;28;20053;-72
2023/09/01 02:15:33;;;;;;;6.03;3.80;;;;;;;;;;5039271;28;20111;-72
2023/09/01 02:17:58;;;;;;;6.35;3.80;;;;;;;;;;5003404;28;20069;-72
2023/09/01 02:20:26;;;;;;;4.53;3.22;;;;;;;;;;5023013;28;20077;-72
2023/09/01 02:22:53;;;;;;;4.60;3.40;;;;;;;;;;5020451;28;20132;-72
2023/09/01 02:25:21;;;;;;;4.70;3.08;;;;;;;;;;5013003;28;20045;-72
2023/09/01 02:27:46;;;;;;;3.25;2.88;;;;;;;;;;5014058;28;20038;-72
2023/09/01 02:30:12;;;;;;;4.50;3.65;;;;;;;;;;5007439;28;20417;-73
2023/09/01 02:32:38;;;;;;;5.82;2.70;;;;;;;;;;5009976;28;20081;-72
2023/09/01 02:35:06;;;;;;;4.00;3.60;;;;;;;;;;5006914;28;20605;-72
2023/09/01 02:37:32;;;;;;;4.07;3.20;;;;;;;;;;5016896;28;20643;-72
2023/09/01 02:39:58;;;;;;;5.88;3.40;;;;;;;;;;5039109;28;20123;-73
2023/09/01 02:42:24;;;;;;;3.42;3.13;;;;;;;;;;5023428;28;20199;-73
2023/09/01 02:44:49;;;;;;;4.05;3.10;;;;;;;;;;5011432;28;20045;-73
2023/09/01 02:47:15;;;;;;;5.30;3.05;;;;;;;;;;5039047;28;20052;-72
2023/09/01 02:49:40;;;;;;;4.25;3.55;;;;;;;;;;5021422;28;20133;-73
2023/09/01 02:52:06;;;;;;;4.75;3.47;;;;;;;;;;5039362;28;20659;-73
2023/09/01 02:54:31;;;;;;;3.88;3.08;;;;;;;;;;5038364;28;20052;-73
2023/09/01 02:56:56;;;;;;;4.70;3.97;;;;;;;;;;5039517;28;20087;-72
2023/09/01 02:59:22;;;;;;;4.72;3.42;;;;;;;;;;5025060;28;20077;-73
2023/09/01 03:01:47;;;;;;;5.78;3.63;;;;;;;;;;5021750;28;20040;-73
2023/09/01 03:04:14;;;;;;;4.43;3.83;;;;;;;;;;5024855;28;20057;-73
2023/09/01 03:06:39;;;;;;;7.75;3.78;;;;;;;;;;5038205;28;20084;-73
2023/09/01 03:09:05;;;;;;;5.30;3.50;;;;;;;;;;5025469;28;20140;-72
2023/09/01 03:11:31;;;;;;;8.25;3.50;;;;;;;;;;5034977;28;20041;-73
2023/09/01 03:13:57;;;;;;;3.55;3.00;;;;;;;;;;5025750;28;20049;-73
2023/09/01 03:16:23;;;;;;;3.30;2.85;;;;;;;;;;5024158;28;20049;-73
2023/09/01 03:18:50;;;;;;;4.07;3.03;;;;;;;;;;5038246;28;20049;-73
2023/09/01 03:21:15;;;;;;;4.50;3.53;;;;;;;;;;5023366;28;20052;-73
2023/09/01 03:23:43;;;;;;;4.47;3.45;;;;;;;;;;5037331;28;20060;-73
2023/09/01 03:26:09;;;;;;;4.80;3.40;;;;;;;;;;5039833;28;20102;-73
2023/09/01 03:28:34;;;;;;;6.05;4.22;;;;;;;;;;5021967;28;20476;-73
2023/09/01 03:31:02;;;;;;;4.43;3.60;;;;;;;;;;5026329;28;20056;-73
2023/09/01 03:33:30;;;;;;;7.53;4.00;;;;;;;;;;5037331;28;20037;-72
2023/09/01 03:36:00;;;;;;;7.10;3.97;;;;;;;;;;5030906;28;20045;-73
2023/09/01 03:38:25;;;;;;;4.15;3.67;;;;;;;;;;5022528;28;20070;-73
2023/09/01 03:40:51;;;;;;;5.18;3.42;;;;;;;;;;5037765;28;20044;-73
2023/09/01 03:43:16;;;;;;;5.45;3.75;;;;;;;;;;5036575;28;20108;-73
2023/09/01 03:45:44;;;;;;;5.82;3.45;;;;;;;;;;5020483;28;20041;-72
2023/09/01 03:48:10;;;;;;;6.03;3.42;;;;;;;;;;5036845;28;20107;-72
2023/09/01 03:50:35;;;;;;;9.85;3.95;;;;;;;;;;5034250;28;20077;-73
2023/09/01 03:53:01;;;;;;;5.15;4.07;;;;;;;;;;5037860;28;20056;-72
2023/09/01 03:55:26;;;;;;;6.40;4.55;;;;;;;;;;5033762;28;20053;-73
2023/09/01 03:57:52;;;;;;;8.68;4.20;;;;;;;;;;5033075;28;20097;-73
2023/09/01 04:00:17;;;;;;;4.40;4.00;;;;;;;;;;5034836;28;20096;-73
2023/09/01 04:02:43;;;;;;;5.65;3.83;;;;;;;;;;5034365;28;20045;-73
2023/09/01 04:05:09;;;;;;;5.47;4.32;;;;;;;;;;5034401;28;20102;-73
2023/09/01 04:07:34;;;;;;;6.15;3.88;;;;;;;;;;5027093;28;20132;-73
2023/09/01 04:10:01;;;;;;;4.53;4.10;;;;;;;;;;5034665;28;20331;-73
2023/09/01 04:12:27;;;;;;;4.93;3.90;;;;;;;;;;5019622;28;20049;-73
2023/09/01 04:14:53;;;;;;;7.47;3.92;;;;;;;;;;5033884;28;20049;-73
2023/09/01 04:17:18;;;;;;;6.32;3.60;;;;;;;;;;5033323;28;20076;-73
2023/09/01 04:19:49;;;;;;;5.05;4.20;;;;;;;;;;5033265;28;20045;-73
2023/09/01 04:22:15;;;;;;;5.90;4.15;;;;;;;;;;5034170;28;20517;-72
2023/09/01 04:24:40;;;;;;;4.40;4.00;;;;;;;;;;5019215;28;20680;-74
2023/09/01 04:27:06;;;;;;;5.32;4.07;;;;;;;;;;5016660;28;20981;-74
2023/09/01 04:29:31;;;;;;;5.93;4.25;;;;;;;;;;5049253;28;20588;-73
2023/09/01 04:31:57;;;;;;;4.60;3.83;;;;;;;;;;5033400;28;20056;-73
2023/09/01 04:34:24;;;;;;;7.95;4.25;;;;;;;;;;5017647;28;20041;-73
2023/09/01 04:36:50;;;;;;;6.28;4.40;;;;;;;;;;5034014;28;20094;-73
2023/09/01 04:39:17;;;;;;;8.95;4.78;;;;;;;;;;5033180;28;20041;-73
2023/09/01 04:41:43;;;;;;;8.32;4.63;;;;;;;;;;5032536;28;20060;-73
2023/09/01 04:44:09;;;;;;;9.15;4.78;;;;;;;;;;5034167;28;20049;-73
2023/09/01 04:46:34;;;;;;;6.90;4.78;;;;;;;;;;5023201;28;20526;-73
2023/09/01 04:49:00;;;;;;;4.93;4.28;;;;;;;;;;5036155;28;20056;-73
2023/09/01 04:51:26;;;;;;;10.45;4.22;;;;;;;;;;5023344;28;20045;-73
2023/09/01 04:53:52;;;;;;;5.20;4.53;;;;;;;;;;5031569;28;20393;-73
2023/09/01 04:56:17;;;;;;;9.02;5.03;;;;;;;;;;5033521;28;20049;-73
2023/09/01 04:58:42;;;;;;;7.90;4.90;;;;;;;;;;5034766;28;20114;-73
2023/09/01 05:01:08;;;;;;;4.75;4.25;;;;;;;;;;5027699;28;20076;-72
2023/09/01 05:03:34;;;;;;;5.30;4.55;;;;;;;;;;5021417;28;21002;-73
2023/09/01 05:05:59;;;;;;;6.65;3.85;;;;;;;;;;5017703;28;20057;-72
2023/09/01 05:08:25;;;;;;;5.30;4.38;;;;;;;;;;5016929;28;20052;-72
2023/09/01 05:10:52;;;;;;;4.20;3.63;;;;;;;;;;5032869;28;20041;-72
2023/09/01 05:13:18;;;;;;;5.22;3.80;;;;;;;;;;5033743;28;20041;-72
2023/09/01 05:15:46;;;;;;;6.13;4.18;;;;;;;;;;5031035;28;20438;-71
2023/09/01 05:18:12;;;;;;;6.28;3.75;;;;;;;;;;5039892;28;20107;-72
2023/09/01 05:20:37;;;;;;;4.10;3.58;;;;;;;;;;5019101;28;20044;-72
2023/09/01 05:23:03;;;;;;;6.40;3.60;;;;;;;;;;5035727;28;20155;-72
2023/09/01 05:25:31;;;;;;;6.43;3.40;;;;;;;;;;5031311;28;20107;-72
2023/09/01 05:27:57;;;;;;;3.03;2.72;;;;;;;;;;5030613;28;21217;-72
2023/09/01 05:30:23;;;;;;;3.38;3.08;;;;;;;;;;5031567;28;20051;-72
2023/09/01 05:32:49;;;;;;;8.02;3.75;;;;;;;;;;5032930;28;20041;-73
2023/09/01 05:35:14;;;;;;;6.57;3.30;;;;;;;;;;5036367;28;20148;-72
2023/09/01 05:37:40;;;;;;;4.68;3.30;;;;;;;;;;5015321;28;20053;-72
2023/09/01 05:40:07;;;;;;;5.32;3.67;;;;;;;;;;5034184;28;20052;-72
2023/09/01 05:42:32;;;;;;;7.35;3.60;;;;;;;;;;5033140;28;20048;-72
2023/09/01 05:44:58;;;;;;;6.05;3.38;;;;;;;;;;5032562;28;20049;-72
2023/09/01 05:47:24;;;;;;;4.43;3.60;;;;;;;;;;5034825;28;20040;-73
2023/09/01 05:49:50;;;;;;;7.63;3.40;;;;;;;;;;5016348;28;20055;-73
2023/09/01 05:52:15;;;;;;;5.90;3.63;;;;;;;;;;5021041;28;20045;-74
2023/09/01 05:54:40;;;;;;;5.43;3.63;;;;;;;;;;5033995;28;20110;-73
2023/09/01 05:57:06;;;;;;;4.15;3.40;;;;;;;;;;5031993;28;20038;-73
2023/09/01 05:59:31;;;;;;;8.98;3.88;;;;;;;;;;5022663;28;20044;-73
2023/09/01 06:01:57;;;;;;;5.13;3.45;;;;;;;;;;5032040;28;20540;-73
2023/09/01 06:04:22;;;;;;;6.75;3.47;;;;;;;;;;5023277;28;20060;-73
2023/09/01 06:06:47;;;;;;;5.90;3.05;;;;;;;;;;5034059;28;20088;-73
2023/09/01 06:09:13;;;;;;;6.38;3.40;;;;;;;;;;5024037;28;20088;-72
2023/09/01 06:11:39;;;;;;;4.40;3.53;;;;;;;;;;5034795;28;20405;-73
2023/09/01 06:14:04;;;;;;;5.20;3.38;;;;;;;;;;5028262;28;20040;-73
2023/09/01 06:16:30;;;;;;;3.75;3.15;;;;;;;;;;5031922;28;20048;-73
2023/09/01 06:18:58;;;;;;;4.55;3.50;;;;;;;;;;5031879;28;20045;-72
2023/09/01 06:21:23;;;;;;;4.82;3.00;;;;;;;;;;5028246;28;20045;-72
2023/09/01 06:23:49;;;;;;;5.85;3.42;;;;;;;;;;5027115;28;20119;-72
2023/09/01 06:26:14;;;;;;;5.05;3.10;;;;;;;;;;5041272;28;21188;-72
2023/09/01 06:28:40;;;;;;;5.05;2.58;;;;;;;;;;5036100;28;20587;-72
2023/09/01 06:31:09;;;;;;;3.22;2.92;;;;;;;;;;5036242;28;20051;-72
2023/09/01 06:33:37;;;;;;;5.25;3.05;;;;;;;;;;5022443;28;20045;-70
2023/09/01 06:36:04;;;;;;;2.90;2.70;;;;;;;;;;5024248;28;20045;-72
2023/09/01 06:38:29;;;;;;;4.57;2.97;;;;;;;;;;5023980;28;20069;-72
2023/09/01 06:40:55;;;;;;;4.80;2.75;;;;;;;;;;5026020;28;20525;-73
2023/09/01 06:43:20;;;;;;;4.80;2.75;;;;;;;;;;5023493;28;20406;-74
2023/09/01 06:45:46;;;;;;;2.92;2.72;;;;;;;;;;5023511;28;20132;-74
2023/09/01 06:48:11;;;;;;;2.85;2.65;;;;;;;;;;5036381;28;20053;-73
2023/09/01 06:50:38;;;;;;;2.65;2.45;;;;;;;;;;5023045;28;20049;-73
2023/09/01 06:53:04;;;;;;;5.03;2.40;;;;;;;;;;5036655;28;20151;-74
2023/09/01 06:55:30;;;;;;;2.42;2.15;;;;;;;;;;5036735;28;20049;-73
2023/09/01 06:57:55;;;;;;;2.47;2.28;;;;;;;;;;5020686;28;20049;-74
2023/09/01 07:00:21;;;;;;;2.55;2.25;;;;;;;;;;5021641;28;20621;-74
2023/09/01 07:02:46;;;;;;;2.63;2.17;;;;;;;;;;5023611;28;20045;-74
2023/09/01 07:05:11;;;;;;;5.30;2.33;;;;;;;;;;5022938;28;20045;-74
2023/09/01 07:07:37;;;;;;;3.35;2.20;;;;;;;;;;5020370;28;20486;-73
2023/09/01 07:10:03;;;;;;;2.65;2.15;;;;;;;;;;5024061;28;20049;-73
2023/09/01 07:12:29;;;;;;;2.92;2.55;;;;;;;;;;5033438;28;20053;-76
2023/09/01 07:14:54;;;;;;;2.83;2.50;;;;;;;;;;5023513;28;20045;-75
2023/09/01 07:17:21;;;;;;;3.22;2.53;;;;;;;;;;5024201;28;20048;-73
2023/09/01 07:19:47;;;;;;;2.45;2.25;;;;;;;;;;5021392;28;20049;-74
2023/09/01 07:22:12;;;;;;;2.83;2.22;;;;;;;;;;5022136;28;20684;-73
2023/09/01 07:24:38;;;;;;;2.95;2.10;;;;;;;;;;5027789;28;20049;-75
2023/09/01 07:27:05;;;;;;;3.33;2.30;;;;;;;;;;5036570;28;20105;-74
2023/09/01 07:29:31;;;;;;;3.08;2.30;;;;;;;;;;5036896;28;20850;-74
2023/09/01 07:31:56;;;;;;;3.10;2.25;;;;;;;;;;5035106;28;21115;-74
2023/09/01 07:34:21;;;;;;;2.25;2.05;;;;;;;;;;5020821;28;20071;-74
2023/09/01 07:36:47;;;;;;;2.95;2.35;;;;;;;;;;5021041;28;20045;-74
2023/09/01 07:39:12;;;;;;;2.22;1.98;;;;;;;;;;5035394;28;20041;-73
2023/09/01 07:41:38;;;;;;;2.53;1.55;;;;;;;;;;5020001;28;20086;-73
2023/09/01 07:44:03;;;;;;;2.50;2.00;;;;;;;;;;5019620;28;20053;-73
2023/09/01 07:46:33;;;;;;;4.57;1.90;;;;;;;;;;5024215;28;20041;-74
2023/09/01 07:49:02;;;;;;;2.00;1.80;;;;;;;;;;5030818;28;20060;-75
2023/09/01 07:51:28;;;;;;;1.42;1.33;;;;;;;;;;5031429;28;20036;-74
2023/09/01 07:53:54;;;;;;;3.20;1.58;;;;;;;;;;5033118;28;20053;-75
2023/09/01 07:56:20;;;;;;;2.00;1.80;;;;;;;;;;5026328;28;20056;-74
2023/09/01 07:58:46;;;;;;;1.60;1.50;;;;;;;;;;5036284;28;20560;-75
2023/09/01 08:01:11;;;;;;;3.33;1.65;;;;;;;;;;5020992;28;20049;-75
2023/09/01 08:03:36;;;;;;;1.83;1.63;;;;;;;;;;5032806;28;20073;-75
2023/09/01 08:06:02;;;;;;;2.08;1.63;;;;;;;;;;5037130;28;20123;-75
2023/09/01 08:08:27;;;;;;;2.13;1.50;;;;;;;;;;5032982;28;20056;-75
2023/09/01 08:10:54;;;;;;;4.15;1.50;;;;;;;;;;5033524;28;20041;-77
2023/09/01 08:13:19;;;;;;;5.15;1.55;;;;;;;;;;5034443;28;20878;-75
2023/09/01 08:15:45;;;;;;;4.28;1.40;;;;;;;;;;5035071;28;20525;-76
2023/09/01 08:18:10;;;;;;;1.73;1.10;;;;;;;;;;5029911;28;20068;-75
2023/09/01 08:20:35;;;;;;;2.38;1.20;;;;;;;;;;5034582;28;20045;-75
2023/09/01 08:23:01;;;;;;;0.88;0.88;;;;;;;;;;5029376;28;20052;-74
2023/09/01 08:25:26;;;;;;;1.33;1.00;;;;;;;;;;5024748;28;20037;-74
2023/09/01 08:27:52;;;;;;;2.58;1.00;;;;;;;;;;5032235;28;20140;-78
2023/09/01 08:30:17;;;;;;;1.00;0.90;;;;;;;;;;5025865;28;20043;-77
2023/09/01 08:32:43;;;;;;;1.50;0.95;;;;;;;;;;5034834;28;20037;-75
2023/09/01 08:35:09;;;;;;;2.45;0.98;;;;;;;;;;5027046;28;20422;-76
2023/09/01 08:37:34;;;;;;;0.90;0.90;;;;;;;;;;5025214;28;20045;-76
2023/09/01 08:40:00;;;;;;;1.35;1.20;;;;;;;;;;5026590;28;20057;-75
2023/09/01 08:42:26;;;;;;;0.77;0.70;;;;;;;;;;5036488;28;20048;-75
2023/09/01 08:44:52;;;;;;;1.27;1.17;;;;;;;;;;5032871;28;20041;-74
2023/09/01 08:47:22;;;;;;;1.77;1.08;;;;;;;;;;5022532;28;20045;-76
2023/09/01 08:49:50;;;;;;;1.20;0.90;;;;;;;;;;5030229;28;20057;-77
2023/09/01 08:52:19;;;;;;;0.82;0.80;;;;;;;;;;5023248;28;20072;-73
2023/09/01 08:54:46;;;;;;;1.35;0.90;;;;;;;;;;5030619;28;20132;-76
2023/09/01 08:57:11;;;;;;;0.82;0.73;;;;;;;;;;5035187;28;20060;-77
2023/09/01 08:59:37;;;;;;;4.43;1.05;;;;;;;;;;5033478;28;20188;-77
2023/09/01 09:02:07;;;;;;;1.00;0.90;;;;;;;;;;5022184;28;20979;-77
2023/09/01 09:04:33;;;;;;;1.10;1.00;;;;;;;;;;5024347;28;20049;-75
2023/09/01 09:07:14;;;;;;;1.08;0.77;;;;;;;;;;5025815;28;20052;-74
2023/09/01 09:09:58;;;;;;;1.45;0.90;;;;;;;;;;5031274;28;20069;-72
2023/09/01 09:12:38;;;;;;;0.80;0.75;;;;;;;;;;5019806;28;20055;-74
2023/09/01 09:15:04;;;;;;;1.50;0.90;;;;;;;;;;5035834;28;20049;-77
2023/09/01 09:17:44;;;;;;;1.35;0.82;;;;;;;;;;5036111;28;20044;-78
2023/09/01 09:20:15;;;;;;;1.60;0.80;;;;;;;;;;5030731;28;20098;-77
2023/09/01 09:22:56;;;;;;;1.35;0.77;;;;;;;;;;5036524;28;20057;-75
2023/09/01 09:25:29;;;;;;;1.10;1.00;;;;;;;;;;5029543;28;20045;-74
2023/09/01 09:28:20;;;;;;;1.35;1.00;;;;;;;;;;5029607;28;20153;-75
2023/09/01 09:30:49;;;;;;;;;;;;;;;;;;5024161;28;20075;-75
2023/09/01 09:33:15;;;;;;;0.80;0.70;;;;;;;;;;5032359;28;19921;-74
2023/09/01 09:35:50;;;;;;;0.70;0.70;;;;;;;;;;5030933;28;20412;-73
2023/09/01 09:38:17;;;;;;;1.17;0.70;;;;;;;;;;5021902;28;20053;-73
2023/09/01 09:40:56;;;;;;;0.82;0.68;;;;;;;;;;5026828;28;20041;-73
2023/09/01 09:43:22;;;;;;;1.92;0.80;;;;;;;;;;5027197;28;20044;-73
2023/09/01 09:45:47;;;;;;;0.93;0.60;;;;;;;;;;5019687;28;20112;-73
2023/09/01 09:48:13;;;;;;;1.33;0.80;;;;;;;;;;5026116;28;20205;-73
2023/09/01 09:50:39;;;;;;;0.82;0.70;;;;;;;;;;5032518;28;20099;-72
2023/09/01 09:53:06;;;;;;;0.63;0.57;;;;;;;;;;5034944;28;20049;-72
2023/09/01 09:55:45;;;;;;;0.82;0.70;;;;;;;;;;5019021;28;20474;-72
2023/09/01 09:58:11;;;;;;;1.60;0.68;;;;;;;;;;5025061;28;20119;-72
2023/09/01 10:01:02;;;;;;;1.23;0.68;;;;;;;;;;5023656;28;20608;-73
2023/09/01 10:03:31;;;;;;;2.88;0.60;;;;;;;;;;5023907;28;20061;-73
2023/09/01 10:05:58;;;;;;;1.25;0.70;;;;;;;;;;5023456;28;20123;-73
2023/09/01 10:08:24;;;;;;;2.35;1.17;;;;;;;;;;5024020;28;20447;-73
2023/09/01 10:10:50;;;;;;;1.30;1.08;;;;;;;;;;5023702;28;20915;-72
2023/09/01 10:13:15;;;;;;;3.25;0.90;;;;;;;;;;5023445;28;20045;-73
2023/09/01 10:15:42;;;;;;;0.70;0.70;;;;;;;;;;5022328;28;20430;-72
2023/09/01 10:18:09;;;;;;;1.13;0.80;;;;;;;;;;5022713;28;20068;-75
2023/09/01 10:20:43;;;;;;;0.82;0.80;;;;;;;;;;5023654;28;20056;-72
2023/09/01 10:23:10;;;;;;;3.97;0.93;;;;;;;;;;5022073;28;20103;-72
2023/09/01 10:25:36;;;;;;;0.82;0.77;;;;;;;;;;5034690;28;20048;-74
2023/09/01 10:28:03;;;;;;;1.00;0.57;;;;;;;;;;5036030;28;20418;-74
2023/09/01 10:30:31;;;;;;;0.65;0.65;;;;;;;;;;5024474;28;20136;-75
2023/09/01 10:33:14;;;;;;;0.60;0.50;;;;;;;;;;5017965;28;20515;-73
2023/09/01 10:35:44;;;;;;;0.70;0.65;;;;;;;;;;5025807;28;20071;-74
2023/09/01 10:38:14;;;;;;;1.48;0.57;;;;;;;;;;5026429;28;20053;-74
2023/09/01 10:40:43;;;;;;;0.60;0.57;;;;;;;;;;5021403;28;20923;-74
2023/09/01 10:43:10;;;;;;;2.40;0.70;;;;;;;;;;5025900;28;20131;-74
2023/09/01 10:45:36;;;;;;;0.68;0.63;;;;;;;;;;5023302;28;20042;-71
2023/09/01 10:48:03;;;;;;;1.45;0.60;;;;;;;;;;5024744;28;20053;-72
2023/09/01 10:50:32;;;;;;;0.57;0.57;;;;;;;;;;5021478;28;20471;-71
2023/09/01 10:53:30;;;;;;;2.15;0.98;;;;;;;;;;5023937;28;20045;-72
2023/09/01 10:56:06;;;;;;;1.02;0.93;;;;;;;;;;5022854;28;20052;-72
2023/09/01 10:58:44;;;;;;;0.98;0.80;;;;;;;;;;5026091;28;20425;-72
2023/09/01 11:01:31;;;;;;;1.17;0.73;;;;;;;;;;5023359;28;20045;-72
2023/09/01 11:04:29;;;;;;;1.27;0.60;;;;;;;;;;5023649;28;20124;-72
2023/09/01 11:07:00;;;;;;;1.08;0.80;;;;;;;;;;5000634;28;20054;-72
2023/09/01 11:09:35;;;;;;;1.15;0.80;;;;;;;;;;5020498;28;20107;-72
2023/09/01 11:12:02;;;;;;;0.77;0.75;;;;;;;;;;5019979;28;20068;-72
2023/09/01 11:14:27;;;;;;;1.60;0.80;;;;;;;;;;5020156;28;20037;-72
2023/09/01 11:16:52;;;;;;;0.75;0.73;;;;;;;;;;5023534;28;20184;-72
2023/09/01 11:19:18;;;;;;;0.98;0.85;;;;;;;;;;5028655;28;20056;-72
2023/09/01 11:21:46;;;;;;;1.83;0.70;;;;;;;;;;5027188;28;20049;-72
2023/09/01 11:24:11;;;;;;;2.28;1.00;;;;;;;;;;5023610;28;20069;-73
2023/09/01 11:26:37;;;;;;;1.88;0.80;;;;;;;;;;5023417;28;20814;-73
2023/09/01 11:29:11;;;;;;;1.05;0.60;;;;;;;;;;5022761;28;20041;-72
2023/09/01 11:31:38;;;;;;;0.63;0.60;;;;;;;;;;5025832;28;20041;-73
2023/09/01 11:34:03;;;;;;;1.13;0.75;;;;;;;;;;5026075;28;20409;-72
2023/09/01 11:36:29;;;;;;;0.60;0.60;;;;;;;;;;5024852;28;20497;-72
2023/09/01 11:38:54;;;;;;;1.77;1.00;;;;;;;;;;5031047;28;20053;-72
2023/09/01 11:41:21;;;;;;;0.80;0.80;;;;;;;;;;5025991;28;20486;-72
2023/09/01 11:43:47;;;;;;;1.38;0.85;;;;;;;;;;5027235;28;20053;-73
2023/09/01 11:46:13;;;;;;;0.90;0.75;;;;;;;;;;5024324;28;20543;-73
2023/09/01 11:48:38;;;;;;;0.70;0.57;;;;;;;;;;5029146;28;20420;-73
2023/09/01 11:51:04;;;;;;;1.23;0.60;;;;;;;;;;5030294;28;20051;-74
2023/09/01 11:53:33;;;;;;;0.40;0.40;;;;;;;;;;5025583;28;20153;-74
2023/09/01 11:56:01;;;;;;;2.40;0.70;;;;;;;;;;5028369;28;20072;-74
2023/09/01 11:58:32;;;;;;;3.33;0.70;;;;;;;;;;5029234;28;20140;-73
2023/09/01 12:01:17;;;;;;;0.65;0.65;;;;;;;;;;5027246;28;20051;-72
2023/09/01 12:03:48;;;;;;;1.10;1.00;;;;;;;;;;5025860;28;20041;-73
2023/09/01 12:06:15;;;;;;;;;;;;;;;;;;5027402;28;20557;-73
2023/09/01 12:08:41;;;;;;;2.05;1.02;;;;;;;;;;5026223;28;20495;-72
2023/09/01 12:11:07;;;;;;;1.20;0.73;;;;;;;;;;5022021;28;20045;-72
2023/09/01 12:13:32;;;;;;;0.77;0.70;;;;;;;;;;5034491;28;20048;-71
2023/09/01 12:16:02;;;;;;;1.80;0.90;;;;;;;;;;5035109;28;21232;-71
2023/09/01 12:18:27;;;;;;;0.77;0.63;;;;;;;;;;5027404;28;20068;-73
2023/09/01 12:20:53;;;;;;;1.20;0.60;;;;;;;;;;5025634;28;20044;-71
2023/09/01 12:23:26;;;;;;;1.58;1.00;;;;;;;;;;5020708;28;20049;-72
2023/09/01 12:25:52;;;;;;;1.33;0.88;;;;;;;;;;5027627;28;20064;-71
2023/09/01 12:28:17;;;;;;;0.98;0.75;;;;;;;;;;5025518;28;20041;-71
2023/09/01 12:30:43;;;;;;;2.50;0.75;;;;;;;;;;5032118;28;20397;-73
2023/09/01 12:33:08;;;;;;;1.90;0.88;;;;;;;;;;5036701;28;20852;-72
2023/09/01 12:35:33;;;;;;;0.80;0.70;;;;;;;;;;5032603;28;20045;-75
2023/09/01 12:37:59;;;;;;;1.13;0.70;;;;;;;;;;5026601;28;20049;-72
2023/09/01 12:40:24;;;;;;;0.70;0.52;;;;;;;;;;5032734;28;20849;-73
2023/09/01 12:42:50;;;;;;;0.80;0.60;;;;;;;;;;5032815;28;20045;-73
2023/09/01 12:45:15;;;;;;;1.38;0.52;;;;;;;;;;5028210;28;20044;-75
2023/09/01 12:47:41;;;;;;;1.60;0.85;;;;;;;;;;5020005;28;20041;-73
2023/09/01 12:50:07;;;;;;;1.00;0.73;;;;;;;;;;5036226;28;20164;-72
2023/09/01 12:52:33;;;;;;;0.77;0.70;;;;;;;;;;5025917;28;20151;-73
2023/09/01 12:54:58;;;;;;;1.75;0.65;;;;;;;;;;5027118;28;20041;-73
2023/09/01 12:57:24;;;;;;;2.05;0.77;;;;;;;;;;5029998;28;20107;-73
2023/09/01 12:59:49;;;;;;;0.85;0.60;;;;;;;;;;5027846;28;20042;-73
2023/09/01 13:02:14;;;;;;;1.02;0.80;;;;;;;;;;5034761;28;20548;-73
2023/09/01 13:04:40;;;;;;;0.70;0.60;;;;;;;;;;5020674;28;20124;-73
2023/09/01 13:07:07;;;;;;;1.85;0.82;;;;;;;;;;5034307;28;20045;-72
2023/09/01 13:09:32;;;;;;;0.80;0.68;;;;;;;;;;5026440;28;20051;-72
2023/09/01 13:11:58;;;;;;;1.17;0.82;;;;;;;;;;5023764;28;20057;-74
2023/09/01 13:14:24;;;;;;;1.02;0.70;;;;;;;;;;5031527;28;20136;-73
2023/09/01 13:16:49;;;;;;;1.15;0.70;;;;;;;;;;5017274;28;20045;-73
2023/09/01 13:19:14;;;;;;;1.13;0.80;;;;;;;;;;5028339;28;20060;-73
2023/09/01 13:21:40;;;;;;;1.95;0.75;;;;;;;;;;5023815;28;20098;-73
2023/09/01 13:24:06;;;;;;;0.70;0.70;;;;;;;;;;5032379;28;20838;-73
2023/09/01 13:26:31;;;;;;;1.00;0.70;;;;;;;;;;5027988;28;20079;-73
2023/09/01 13:28:58;;;;;;;0.80;0.60;;;;;;;;;;5033007;28;20053;-73
2023/09/01 13:31:24;;;;;;;0.68;0.68;;;;;;;;;;5018590;28;20498;-74
2023/09/01 13:33:49;;;;;;;0.73;0.73;;;;;;;;;;5039731;28;20049;-74
2023/09/01 13:36:14;;;;;;;0.88;0.70;;;;;;;;;;5027085;28;20160;-74
2023/09/01 13:38:40;;;;;;;1.00;0.73;;;;;;;;;;5022952;28;20049;-73
2023/09/01 13:41:07;;;;;;;1.83;0.57;;;;;;;;;;5038351;28;20049;-73
2023/09/01 13:43:33;;;;;;;1.13;0.50;;;;;;;;;;5026137;28;20140;-72
2023/09/01 13:46:18;;;;;;;0.82;0.73;;;;;;;;;;5027661;28;20057;-75
2023/09/01 13:48:43;;;;;;;0.73;0.60;;;;;;;;;;5030536;28;20044;-69
2023/09/01 13:51:09;;;;;;;0.65;0.50;;;;;;;;;;5033987;28;20049;-71
2023/09/01 13:53:34;;;;;;;1.38;0.77;;;;;;;;;;5024713;28;20396;-72
2023/09/01 13:56:00;;;;;;;0.93;0.63;;;;;;;;;;5027355;28;20056;-71
2023/09/01 13:58:25;;;;;;;1.17;0.60;;;;;;;;;;5033345;28;20056;-71
2023/09/01 14:00:53;;;;;;;1.88;0.60;;;;;;;;;;5022543;28;20080;-71
2023/09/01 14:03:19;;;;;;;0.70;0.50;;;;;;;;;;5037202;28;20716;-70
2023/09/01 14:05:44;;;;;;;0.63;0.40;;;;;;;;;;5032640;28;20123;-71
2023/09/01 14:08:10;;;;;;;0.70;0.60;;;;;;;;;;5032744;28;20689;-72
2023/09/01 14:10:35;;;;;;;0.70;0.60;;;;;;;;;;5025353;28;20743;-72
2023/09/01 14:13:01;;;;;;;1.25;0.80;;;;;;;;;;5033171;28;20079;-71
2023/09/01 14:15:26;;;;;;;0.52;0.50;;;;;;;;;;5034397;28;20080;-71
2023/09/01 14:17:52;;;;;;;0.70;0.70;;;;;;;;;;5026778;28;20049;-71
2023/09/01 14:20:17;;;;;;;1.58;0.70;;;;;;;;;;5022366;28;20033;-71
2023/09/01 14:22:42;;;;;;;1.05;0.55;;;;;;;;;;5020286;28;20265;-72
2023/09/01 14:25:08;;;;;;;2.65;0.65;;;;;;;;;;5032554;28;20063;-72
2023/09/01 14:27:34;;;;;;;1.10;0.80;;;;;;;;;;5030126;28;20050;-72
2023/09/01 14:29:59;;;;;;;0.75;0.68;;;;;;;;;;5035879;28;20420;-71
2023/09/01 14:32:25;;;;;;;1.73;0.98;;;;;;;;;;5029732;28;20514;-71
2023/09/01 14:34:50;;;;;;;1.08;0.75;;;;;;;;;;5036336;28;20052;-72
2023/09/01 14:37:16;;;;;;;1.13;0.80;;;;;;;;;;5028024;28;20057;-71
2023/09/01 14:39:41;;;;;;;3.17;0.70;;;;;;;;;;5029988;28;20168;-72
2023/09/01 14:42:07;;;;;;;0.98;0.50;;;;;;;;;;5032847;28;20052;-71
2023/09/01 14:44:32;;;;;;;0.47;0.40;;;;;;;;;;5029136;28;20051;-69